Time;durP1;ratioP1;P1;durP2;ratioP2;P2;SDS_P1;SDS_P2;PMS_P1;PMS_P2;Temp;Humidity;BMP_temperature;BMP_pressure;BME280_temperature;BME280_humidity;BME280_pressure;Samples;Min_cycle;Max_cycle;Signal;HPM_P1;HPM_P2
2021/11/16 00:01:02;;;;;;;;;;;;;;;2.15;58.76;102607.44;1730942;82;20530;-66
2021/11/16 00:03:31;;;;;;;;;;;;;;;2.14;58.76;102604.82;1730897;82;20619;-67
2021/11/16 00:05:59;;;;;;;;;;;;;;;2.13;58.81;102606.66;1731097;83;20151;-65
2021/11/16 00:08:29;;;;;;;;;;;;;;;2.15;58.92;102611.98;1730726;83;20187;-64
2021/11/16 00:10:57;;;;;;;;;;;;;;;2.16;58.96;102610.53;1730734;83;20228;-66
2021/11/16 00:13:26;;;;;;;;;;;;;;;2.20;59.06;102611.23;1730862;83;20151;-65
2021/11/16 00:15:55;;;;;;;;;;;;;;;2.23;59.00;102604.28;1730846;83;20151;-65
2021/11/16 00:18:27;;;;;;;;;;;;;;;2.21;59.00;102612.48;1730683;82;20533;-65
2021/11/16 00:20:54;;;;;;;;;;;;;;;2.21;59.06;102598.09;1730733;83;20183;-66
2021/11/16 00:23:24;;;;;;;;;;;;;;;2.22;59.14;102601.19;1730915;83;20461;-65
2021/11/16 00:25:55;;;;;;;;;;;;;;;2.26;59.15;102611.34;1730896;82;20506;-65
2021/11/16 00:28:24;;;;;;;;;;;;;;;2.28;59.11;102608.95;1730733;82;20163;-65
2021/11/16 00:30:53;;;;;;;;;;;;;;;2.29;59.14;102604.41;1730744;83;20210;-65
2021/11/16 00:33:22;;;;;;;;;;;;;;;2.28;59.12;102605.36;1730819;83;20543;-66
2021/11/16 00:35:50;;;;;;;;;;;;;;;2.26;59.19;102601.40;1730748;83;20227;-65
2021/11/16 00:38:20;;;;;;;;;;;;;;;2.25;59.05;102596.08;1730669;81;20533;-65
2021/11/16 00:40:48;;;;;;;;;;;;;;;2.25;59.12;102596.08;1730406;83;20207;-66
2021/11/16 00:43:16;;;;;;;;;;;;;;;2.24;59.20;102599.27;1730322;83;20219;-65
2021/11/16 00:45:47;;;;;;;;;;;;;;;2.22;59.16;102591.72;1730626;82;20458;-65
2021/11/16 00:48:16;;;;;;;;;;;;;;;2.21;59.31;102583.22;1730570;82;20681;-65
2021/11/16 00:50:46;;;;;;;;;;;;;;;2.22;59.16;102583.61;1730899;82;20597;-64
2021/11/16 00:53:15;;;;;;;;;;;;;;;2.22;59.10;102583.61;1730641;83;20147;-66
2021/11/16 00:55:43;;;;;;;;;;;;;;;2.17;59.01;102587.94;1730635;83;20176;-65
2021/11/16 00:58:12;;;;;;;;;;;;;;;2.16;59.18;102597.49;1730869;83;20238;-65
2021/11/16 01:00:42;;;;;;;;;;;;;;;2.20;59.08;102601.28;1730556;83;20282;-65
2021/11/16 01:03:12;;;;;;;;;;;;;;;2.20;58.81;102606.69;1730597;82;20560;-64
2021/11/16 01:05:40;;;;;;;;;;;;;;;2.16;58.63;102594.31;1730714;82;20220;-66
2021/11/16 01:08:11;;;;;;;;;;;;;;;2.14;58.79;102587.24;1730714;83;20155;-64
2021/11/16 01:10:40;;;;;;;;;;;;;;;2.14;58.85;102588.11;1730682;83;20266;-66
2021/11/16 01:13:08;;;;;;;;;;;;;;;2.12;58.79;102589.17;1730776;82;20191;-66
2021/11/16 01:15:40;;;;;;;;;;;;;;;2.09;58.77;102590.70;1730644;83;20264;-65
2021/11/16 01:18:08;;;;;;;;;;;;;;;2.04;58.71;102588.26;1730643;82;20155;-65
2021/11/16 01:20:37;;;;;;;;;;;;;;;2.02;58.88;102590.19;1730493;83;20227;-65
2021/11/16 01:23:07;;;;;;;;;;;;;;;2.02;58.80;102587.48;1730723;83;20176;-65
2021/11/16 01:25:38;;;;;;;;;;;;;;;2.03;58.67;102585.65;1730840;83;20164;-65
2021/11/16 01:28:10;;;;;;;;;;;;;;;1.99;58.56;102579.55;1730686;83;20231;-64
2021/11/16 01:30:43;;;;;;;;;;;;;;;2.00;58.60;102594.80;1730993;82;20255;-65
2021/11/16 01:33:20;;;;;;;;;;;;;;;1.98;58.51;102588.61;1730770;83;20223;-64
2021/11/16 01:35:47;;;;;;;;;;;;;;;1.93;58.32;102577.16;1730964;82;20518;-64
2021/11/16 01:38:16;;;;;;;;;;;;;;;1.85;58.09;102594.30;1732229;83;20610;-64
2021/11/16 01:40:45;;;;;;;;;;;;;;;1.79;58.21;102591.47;1733508;82;20203;-65
2021/11/16 01:43:14;;;;;;;;;;;;;;;1.80;58.21;102588.29;1733456;83;20215;-65
2021/11/16 01:45:44;;;;;;;;;;;;;;;1.80;58.16;102587.81;1730873;83;20167;-65
2021/11/16 01:48:13;;;;;;;;;;;;;;;1.81;58.15;102588.69;1733741;83;20461;-65
2021/11/16 01:50:44;;;;;;;;;;;;;;;1.81;58.18;102594.96;1733564;83;20473;-65
2021/11/16 01:53:14;;;;;;;;;;;;;;;1.81;58.22;102594.09;1733686;83;20221;-65
2021/11/16 01:55:42;;;;;;;;;;;;;;;1.79;58.24;102591.47;1733548;82;20469;-64
2021/11/16 01:58:10;;;;;;;;;;;;;;;1.79;58.22;102587.90;1733772;83;20159;-65
2021/11/16 02:00:40;;;;;;;;;;;;;;;1.80;58.22;102584.23;1733534;82;20255;-65
2021/11/16 02:03:10;;;;;;;;;;;;;;;1.78;58.19;102585.67;1733473;83;20527;-66
2021/11/16 02:05:41;;;;;;;;;;;;;;;1.74;58.21;102584.10;1733547;83;20531;-65
2021/11/16 02:08:09;;;;;;;;;;;;;;;1.71;58.23;102584.77;1733530;82;20258;-66
2021/11/16 02:10:40;;;;;;;;;;;;;;;1.71;58.33;102586.98;1733755;82;20171;-65
2021/11/16 02:13:08;;;;;;;;;;;;;;;1.73;58.38;102581.49;1733571;82;20184;-65
2021/11/16 02:15:37;;;;;;;;;;;;;;;1.72;58.26;102577.91;1733450;83;20294;-64
2021/11/16 02:18:09;;;;;;;;;;;;;;;1.70;58.21;102570.85;1733667;83;20211;-64
2021/11/16 02:20:38;;;;;;;;;;;;;;;1.71;58.31;102576.66;1733644;83;20567;-66
2021/11/16 02:23:06;;;;;;;;;;;;;;;1.72;58.25;102572.51;1733565;83;20485;-64
2021/11/16 02:25:34;;;;;;;;;;;;;;;1.75;58.27;102568.28;1733700;82;20159;-66
2021/11/16 02:28:03;;;;;;;;;;;;;;;1.76;58.16;102548.88;1733735;83;20537;-64
2021/11/16 02:30:32;;;;;;;;;;;;;;;1.74;58.22;102554.86;1733627;83;20167;-65
2021/11/16 02:33:01;;;;;;;;;;;;;;;1.72;58.24;102545.48;1733784;83;20596;-64
2021/11/16 02:35:30;;;;;;;;;;;;;;;1.73;58.23;102540.47;1733742;83;20277;-65
2021/11/16 02:37:58;;;;;;;;;;;;;;;1.76;58.17;102536.72;1733357;82;20163;-64
2021/11/16 02:40:27;;;;;;;;;;;;;;;1.75;58.20;102543.09;1733441;82;20211;-64
2021/11/16 02:42:56;;;;;;;;;;;;;;;1.75;58.11;102535.84;1733688;82;20260;-64
2021/11/16 02:45:25;;;;;;;;;;;;;;;1.76;58.18;102540.77;1733652;83;20160;-65
2021/11/16 02:47:54;;;;;;;;;;;;;;;1.73;58.07;102529.66;1733472;82;20343;-65
2021/11/16 02:50:23;;;;;;;;;;;;;;;1.72;58.14;102527.05;1733617;82;20216;-64
2021/11/16 02:52:52;;;;;;;;;;;;;;;1.74;58.15;102529.18;1733445;82;20163;-64
2021/11/16 02:55:20;;;;;;;;;;;;;;;1.74;58.18;102520.59;1733233;83;20179;-64
2021/11/16 02:57:48;;;;;;;;;;;;;;;1.73;58.20;102526.09;1733460;83;20191;-65
2021/11/16 03:00:17;;;;;;;;;;;;;;;1.70;58.37;102528.97;1733479;82;20278;-66
2021/11/16 03:02:46;;;;;;;;;;;;;;;1.69;58.44;102523.17;1733537;82;20148;-64
2021/11/16 03:05:15;;;;;;;;;;;;;;;1.69;58.39;102524.04;1733600;83;20198;-65
2021/11/16 03:07:47;;;;;;;;;;;;;;;1.66;58.39;102519.30;1733494;83;20194;-65
2021/11/16 03:10:16;;;;;;;;;;;;;;;1.68;58.44;102526.83;1733704;83;20321;-65
2021/11/16 03:12:45;;;;;;;;;;;;;;;1.68;58.39;102532.23;1733192;83;20170;-66
2021/11/16 03:15:13;;;;;;;;;;;;;;;1.70;58.34;102533.89;1733916;83;20545;-65
2021/11/16 03:17:42;;;;;;;;;;;;;;;1.70;58.47;102525.78;1733874;83;20207;-64
2021/11/16 03:20:14;;;;;;;;;;;;;;;1.73;58.46;102524.73;1733648;83;20155;-65
2021/11/16 03:22:53;;;;;;;;;;;;;;;1.74;58.44;102533.23;1733718;83;20259;-64
2021/11/16 03:25:26;;;;;;;;;;;;;;;1.69;58.40;102513.23;1733422;82;20493;-65
2021/11/16 03:28:00;;;;;;;;;;;;;;;1.63;58.56;102517.64;1733780;83;20143;-64
2021/11/16 03:30:28;;;;;;;;;;;;;;;1.61;58.69;102515.98;1733527;83;20198;-64
2021/11/16 03:32:57;;;;;;;;;;;;;;;1.61;58.68;102514.64;1733535;83;20197;-65
2021/11/16 03:35:26;;;;;;;;;;;;;;;1.55;58.83;102515.38;1733560;83;20473;-65
2021/11/16 03:37:57;;;;;;;;;;;;;;;1.56;58.88;102510.84;1733142;83;20180;-65
2021/11/16 03:40:25;;;;;;;;;;;;;;;1.57;58.99;102504.00;1730674;83;20204;-65
2021/11/16 03:42:53;;;;;;;;;;;;;;;1.62;58.89;102507.79;1730957;82;20151;-63
2021/11/16 03:45:24;;;;;;;;;;;;;;;1.61;58.82;102503.34;1730811;83;20159;-66
2021/11/16 03:47:53;;;;;;;;;;;;;;;1.62;58.77;102515.03;1730779;83;20160;-64
2021/11/16 03:50:27;;;;;;;;;;;;;;;1.59;58.81;102502.56;1730722;82;20489;-64
2021/11/16 03:52:56;;;;;;;;;;;;;;;1.60;58.68;102505.66;1730627;83;20160;-65
2021/11/16 03:55:27;;;;;;;;;;;;;;;1.54;58.75;102506.88;1730657;83;20175;-67
2021/11/16 03:57:57;;;;;;;;;;;;;;;1.56;58.95;102509.02;1730753;83;20563;-65
2021/11/16 04:00:30;;;;;;;;;;;;;;;1.57;58.84;102510.76;1730716;83;20477;-64
2021/11/16 04:02:59;;;;;;;;;;;;;;;1.59;58.85;102506.14;1730704;83;20321;-64
2021/11/16 04:05:27;;;;;;;;;;;;;;;1.59;58.63;102509.31;1730703;83;20155;-64
2021/11/16 04:07:56;;;;;;;;;;;;;;;1.56;58.56;102507.66;1730909;82;20163;-65
2021/11/16 04:10:25;;;;;;;;;;;;;;;1.52;58.53;102499.34;1730669;83;20250;-64
2021/11/16 04:12:53;;;;;;;;;;;;;;;1.50;58.64;102496.34;1730691;82;20501;-65
2021/11/16 04:15:22;;;;;;;;;;;;;;;1.49;58.71;102495.47;1730937;83;20519;-65
2021/11/16 04:17:51;;;;;;;;;;;;;;;1.50;58.79;102488.23;1730765;83;20179;-64
2021/11/16 04:20:26;;;;;;;;;;;;;;;1.47;58.85;102488.41;1730698;83;20175;-65
2021/11/16 04:22:56;;;;;;;;;;;;;;;1.46;58.80;102498.34;1730750;83;20171;-66
2021/11/16 04:25:25;;;;;;;;;;;;;;;1.44;58.87;102491.28;1730793;83;20155;-65
2021/11/16 04:27:53;;;;;;;;;;;;;;;1.46;59.00;102490.24;1730624;82;20498;-63
2021/11/16 04:30:23;;;;;;;;;;;;;;;1.49;58.92;102491.89;1730740;83;20183;-65
2021/11/16 04:32:51;;;;;;;;;;;;;;;1.50;58.94;102493.16;1730795;83;20239;-65
2021/11/16 04:35:19;;;;;;;;;;;;;;;1.55;58.89;102499.64;1730957;83;20491;-65
2021/11/16 04:37:50;;;;;;;;;;;;;;;1.55;58.84;102499.17;1730107;81;20159;-66
2021/11/16 04:40:23;;;;;;;;;;;;;;;1.56;58.78;102499.56;1718179;83;20531;-65
2021/11/16 04:42:54;;;;;;;;;;;;;;;1.57;58.79;102505.84;1718046;84;20570;-65
2021/11/16 04:45:23;;;;;;;;;;;;;;;1.56;58.71;102515.77;1717985;84;20204;-64
2021/11/16 04:48:04;;;;;;;;;;;;;;;1.51;58.67;102507.05;1691262;84;20152;-63
2021/11/16 04:53:39;;;;;;;;;;;;;;;1.46;58.85;102500.17;1718268;84;20216;-66
2021/11/16 05:03:55;;;;;;;;;;;;;;;1.44;59.14;102497.56;1691644;85;20156;-65
2021/11/16 05:06:25;;;;;;;;;;;;;;;1.42;58.95;102501.31;1718044;83;20252;-65
2021/11/16 05:08:55;;;;;;;;;;;;;;;1.36;59.05;102498.95;1691687;85;20467;-65
2021/11/16 05:11:28;;;;;;;;;;;;;;;1.33;59.24;102498.66;1718048;84;20251;-66
2021/11/16 05:13:56;;;;;;;;;;;;;;;1.34;59.38;102496.34;1718296;84;20287;-65
2021/11/16 05:16:25;;;;;;;;;;;;;;;1.37;59.44;102505.63;1691374;85;20507;-64
2021/11/16 05:18:53;;;;;;;;;;;;;;;1.42;59.22;102509.41;1718019;84;20254;-66
2021/11/16 05:21:22;;;;;;;;;;;;;;;1.43;59.22;102505.75;1691460;84;20233;-64
2021/11/16 05:23:53;;;;;;;;;;;;;;;1.43;59.08;102507.10;1718179;84;20541;-65
2021/11/16 05:26:22;;;;;;;;;;;;;;;1.40;59.18;102509.50;1717845;83;20212;-66
2021/11/16 05:28:50;;;;;;;;;;;;;;;1.40;59.12;102509.50;1691353;85;20184;-65
2021/11/16 05:31:18;;;;;;;;;;;;;;;1.39;59.11;102504.19;1717902;84;20324;-64
2021/11/16 05:33:48;;;;;;;;;;;;;;;1.39;59.13;102508.23;1691642;85;20513;-66
2021/11/16 05:36:17;;;;;;;;;;;;;;;1.37;59.12;102507.45;1718170;84;20506;-64
2021/11/16 05:38:47;;;;;;;;;;;;;;;1.36;59.13;102507.93;1722861;83;20646;-66
2021/11/16 05:41:16;;;;;;;;;;;;;;;1.35;59.15;102510.23;1733191;83;20326;-64
2021/11/16 05:43:45;;;;;;;;;;;;;;;1.35;59.10;102507.53;1733411;83;20192;-65
2021/11/16 05:46:18;;;;;;;;;;;;;;;1.37;59.23;102513.72;1733431;83;20290;-65
2021/11/16 05:48:45;;;;;;;;;;;;;;;1.39;59.16;102514.52;1733280;83;20196;-65
2021/11/16 05:51:13;;;;;;;;;;;;;;;1.40;59.16;102513.55;1733290;83;20215;-66
2021/11/16 05:53:44;;;;;;;;;;;;;;;1.42;59.01;102509.41;1733360;83;20195;-65
2021/11/16 05:56:12;;;;;;;;;;;;;;;1.39;59.08;102513.64;1733512;83;20247;-65
2021/11/16 05:58:41;;;;;;;;;;;;;;;1.38;59.19;102508.72;1733448;83;20231;-65
2021/11/16 06:01:10;;;;;;;;;;;;;;;1.39;59.33;102514.52;1733399;83;20231;-68
2021/11/16 06:03:38;;;;;;;;;;;;;;;1.41;59.40;102515.30;1733475;83;20192;-66
2021/11/16 06:06:07;;;;;;;;;;;;;;;1.44;59.31;102512.42;1733395;83;20195;-66
2021/11/16 06:08:36;;;;;;;;;;;;;;;1.48;59.19;102507.23;1733436;83;20179;-66
2021/11/16 06:11:08;;;;;;;;;;;;;;;1.50;58.97;102524.70;1733362;83;20241;-66
2021/11/16 06:13:37;;;;;;;;;;;;;;;1.49;58.98;102518.43;1733496;83;20212;-65
2021/11/16 06:16:06;;;;;;;;;;;;;;;1.46;59.04;102524.01;1733594;83;20471;-66
2021/11/16 06:18:35;;;;;;;;;;;;;;;1.48;58.96;102524.79;1733385;83;20231;-66
2021/11/16 06:21:04;;;;;;;;;;;;;;;1.48;58.93;102522.09;1733332;83;20319;-65
2021/11/16 06:23:35;;;;;;;;;;;;;;;1.50;59.00;102527.41;1733488;83;20208;-64
2021/11/16 06:26:03;;;;;;;;;;;;;;;1.50;58.87;102529.62;1733366;83;20247;-65
2021/11/16 06:28:32;;;;;;;;;;;;;;;1.49;58.97;102531.94;1733743;83;20522;-66
2021/11/16 06:31:01;;;;;;;;;;;;;;;1.49;58.95;102528.37;1733475;83;20258;-65
2021/11/16 06:33:30;;;;;;;;;;;;;;;1.49;58.95;102528.37;1733394;83;20247;-66
2021/11/16 06:35:59;;;;;;;;;;;;;;;1.52;58.86;102529.06;1733372;83;20262;-65
2021/11/16 06:38:27;;;;;;;;;;;;;;;1.51;58.82;102524.62;1732086;81;20239;-66
2021/11/16 06:40:56;;;;;;;;;;;;;;;1.54;58.83;102521.74;1713864;84;20205;-66
2021/11/16 06:43:30;;;;;;;;;;;;;;;1.56;58.89;102523.00;1713809;84;20204;-65
2021/11/16 06:46:00;;;;;;;;;;;;;;;1.58;58.75;102519.25;1713887;84;20301;-65
2021/11/16 06:48:29;;;;;;;;;;;;;;;1.58;58.77;102530.06;1714221;84;20613;-65
2021/11/16 06:50:57;;;;;;;;;;;;;;;1.61;58.84;102522.74;1713894;84;20239;-65
2021/11/16 06:53:32;;;;;;;;;;;;;;;1.63;58.90;102530.28;1713982;84;20246;-65
2021/11/16 06:56:04;;;;;;;;;;;;;;;1.66;58.65;102524.22;1713991;84;20317;-66
2021/11/16 06:58:34;;;;;;;;;;;;;;;1.68;58.45;102528.19;1713808;84;20213;-65
2021/11/16 07:01:05;;;;;;;;;;;;;;;1.67;58.43;102522.39;1714064;84;20177;-65
2021/11/16 07:03:34;;;;;;;;;;;;;;;1.67;58.39;102507.52;1714008;84;20540;-66
2021/11/16 07:06:04;;;;;;;;;;;;;;;1.70;58.48;102517.68;1713932;83;20319;-65
2021/11/16 07:08:35;;;;;;;;;;;;;;;1.74;58.46;102511.62;1714025;84;20184;-65
2021/11/16 07:11:11;;;;;;;;;;;;;;;1.76;58.38;102513.75;1713786;84;20197;-65
2021/11/16 07:14:03;;;;;;;;;;;;;;;1.80;58.26;102518.88;1713854;84;20577;-66
2021/11/16 07:16:35;;;;;;;;;;;;;;;1.82;58.11;102521.50;1713863;83;20240;-66
2021/11/16 07:19:08;;;;;;;;;;;;;;;1.81;57.92;102523.33;1698139;84;20252;-66
2021/11/16 07:21:48;;;;;;;;;;;;;;;1.79;57.89;102518.49;1713860;83;20543;-65
2021/11/16 07:24:23;;;;;;;;;;;;;;;1.76;57.87;102509.21;1713938;84;20213;-65
2021/11/16 07:27:04;;;;;;;;;;;;;;;1.75;57.97;102505.25;1713795;84;20219;-66
2021/11/16 07:29:54;;;;;;;;;;;;;;;1.74;58.03;102507.56;1713819;84;20208;-67
2021/11/16 07:32:28;;;;;;;;;;;;;;;1.74;58.11;102502.16;1713753;83;20245;-65
2021/11/16 07:35:01;;;;;;;;;;;;;;;1.79;58.23;102497.35;1713767;84;20189;-65
2021/11/16 07:37:32;;;;;;;;;;;;;;;1.83;58.05;102501.14;1713651;84;20228;-66
2021/11/16 07:40:04;;;;;;;;;;;;;;;1.84;57.85;102496.60;1725030;83;20202;-67
2021/11/16 07:42:53;;;;;;;;;;;;;;;1.82;58.02;102497.17;1731489;83;20533;-67
2021/11/16 07:45:27;;;;;;;;;;;;;;;1.86;58.04;102490.63;1733404;83;20235;-65
2021/11/16 07:48:03;;;;;;;;;;;;;;;1.92;57.99;102482.16;1733268;83;20251;-67
2021/11/16 07:50:53;;;;;;;;;;;;;;;1.99;57.93;102486.75;1733504;83;20180;-66
2021/11/16 07:53:24;;;;;;;;;;;;;;;2.08;57.88;102487.07;1673889;86;20264;-66
2021/11/16 07:56:09;;;;;;;;;;;;;;;2.22;57.43;102476.77;1674002;86;20612;-66
2021/11/16 07:58:50;;;;;;;;;;;;;;;2.29;57.17;102476.79;1674312;86;20499;-66
2021/11/16 08:01:56;;;;;;;;;;;;;;;2.31;56.97;102472.64;1674078;86;20285;-66
2021/11/16 08:04:06;;;;;;;;;;;;;;;2.32;56.83;102475.73;1668124;86;20522;-66
2021/11/16 08:06:37;;;;;;;;;;;;;;;2.33;56.75;102472.93;1673660;86;20192;-66
2021/11/16 08:09:57;;;;;;;;;;;;;;;2.36;56.77;102471.39;1674046;86;20185;-65
2021/11/16 08:11:58;;;;;;;;;;;;;;;2.38;56.69;102474.88;1660653;86;20617;-66
2021/11/16 08:14:21;;;;;;;;;;;;;;;2.42;56.42;102475.55;1673419;86;20209;-65
2021/11/16 08:16:57;;;;;;;;;;;;;;;2.42;56.55;102466.95;1674243;86;20193;-65
2021/11/16 08:19:28;;;;;;;;;;;;;;;2.51;56.33;102474.98;1674023;86;20213;-66
2021/11/16 08:21:59;;;;;;;;;;;;;;;2.58;55.98;102464.17;1674176;86;20596;-64
2021/11/16 08:24:29;;;;;;;;;;;;;;;2.62;56.01;102467.10;1674238;86;20260;-66
2021/11/16 08:26:58;;;;;;;;;;;;;;;2.66;55.89;102472.71;1674050;86;20284;-66
2021/11/16 08:29:30;;;;;;;;;;;;;;;2.70;55.48;102470.68;1675623;84;20576;-66
2021/11/16 08:32:09;;;;;;;;;;;;;;;2.68;55.51;102469.91;1704317;84;20201;-67
2021/11/16 08:34:37;;;;;;;;;;;;;;;2.72;55.43;102464.20;1704099;84;20542;-66
2021/11/16 08:37:06;;;;;;;;;;;;;;;2.72;55.42;102465.56;1704473;84;20310;-66
2021/11/16 08:39:38;;;;;;;;;;;;;;;2.74;55.42;102458.21;1704324;84;20214;-67
2021/11/16 08:42:21;;;;;;;;;;;;;;;2.76;55.36;102449.52;1704425;84;20218;-65
2021/11/16 08:44:53;;;;;;;;;;;;;;;2.76;55.24;102440.03;1704298;84;20190;-66
2021/11/16 08:47:28;;;;;;;;;;;;;;;2.75;55.06;102445.55;1704492;84;20500;-66
2021/11/16 08:49:57;;;;;;;;;;;;;;;2.71;55.31;102444.88;1704279;84;20285;-66
2021/11/16 08:52:28;;;;;;;;;;;;;;;2.73;55.32;102448.84;1704621;84;20508;-68
2021/11/16 08:55:07;;;;;;;;;;;;;;;2.75;55.35;102445.06;1651478;86;20475;-66
2021/11/16 08:57:37;;;;;;;;;;;;;;;2.77;55.33;102448.55;1704846;84;20190;-66
2021/11/16 09:00:24;;;;;;;;;;;;;;;2.77;55.14;102439.06;1706412;83;20309;-69
2021/11/16 09:03:02;;;;;;;;;;;;;;;2.78;55.25;102439.45;1700046;84;20254;-67
2021/11/16 09:05:35;;;;;;;;;;;;;;;2.84;55.56;102437.70;1695826;84;20249;-65
2021/11/16 09:10:45;;;;;;;;;;;;;;;2.88;55.42;102437.52;1633090;88;20159;-69
2021/11/16 09:13:15;;;;;;;;;;;;;;;2.87;55.28;102435.29;1632436;87;20208;-65
2021/11/16 09:15:47;;;;;;;;;;;;;;;2.86;55.54;102433.07;1648298;86;20196;-65
2021/11/16 09:18:29;;;;;;;;;;;;;;;2.89;55.40;102429.78;1630416;87;20171;-67
2021/11/16 09:20:58;;;;;;;;;;;;;;;2.90;55.27;102427.45;1602405;89;20265;-67
2021/11/16 09:23:31;;;;;;;;;;;;;;;2.89;57.07;102421.66;1633565;87;20280;-67
2021/11/16 09:28:47;;;;;;;;;;;;;;;2.92;55.30;102408.79;1565858;91;20163;-67
2021/11/16 09:31:41;;;;;;;;;;;;;;;2.91;55.61;102404.83;1632108;88;20194;-67
2021/11/16 09:34:16;;;;;;;;;;;;;;;2.92;55.46;102403.37;1635819;86;20560;-67
2021/11/16 09:36:53;;;;;;;;;;;;;;;2.94;55.78;102403.27;1659774;86;20217;-66
2021/11/16 09:39:25;;;;;;;;;;;;;;;2.95;55.00;102401.82;1659381;86;20468;-66
2021/11/16 09:41:55;;;;;;;;;;;;;;;2.91;54.84;102399.41;1659683;86;20242;-68
2021/11/16 09:44:26;;;;;;;;;;;;;;;2.90;55.07;102387.71;1659745;86;20162;-62
2021/11/16 09:47:03;;;;;;;;;;;;;;;2.92;55.04;102387.61;1660016;86;20197;-66
2021/11/16 09:49:39;;;;;;;;;;;;;;;2.93;55.31;102392.06;1659732;86;20194;-65
2021/11/16 09:52:13;;;;;;;;;;;;;;;2.90;56.50;102394.97;1659461;86;20179;-64
2021/11/16 09:55:06;;;;;;;;;;;;;;;2.93;55.93;102386.16;1660004;86;20215;-67
2021/11/16 09:57:51;;;;;;;;;;;;;;;2.91;55.49;102381.81;1652427;87;20230;-64
2021/11/16 10:00:26;;;;;;;;;;;;;;;2.93;55.10;102373.97;1652868;87;20166;-62
2021/11/16 10:03:11;;;;;;;;;;;;;;;2.94;54.76;102369.42;1652661;87;20162;-65
2021/11/16 10:06:15;;;;;;;;;;;;;;;2.95;55.12;102367.10;1649049;87;20490;-62
2021/11/16 10:08:45;;;;;;;;;;;;;;;3.01;55.18;102372.12;1568993;91;20628;-63
2021/11/16 10:11:14;;;;;;;;;;;;;;;2.98;54.76;102364.19;1567898;91;20570;-63
2021/11/16 10:13:44;;;;;;;;;;;;;;;2.92;55.54;102368.66;1567895;91;20302;-60
2021/11/16 10:16:13;;;;;;;;;;;;;;;2.95;55.50;102358.50;1568049;91;20220;-61
2021/11/16 10:18:44;;;;;;;;;;;;;;;3.05;55.81;102357.41;1568159;91;20554;-62
2021/11/16 10:21:15;;;;;;;;;;;;;;;3.12;55.31;102351.97;1567966;91;20244;-62
2021/11/16 10:23:46;;;;;;;;;;;;;;;3.17;54.83;102352.53;1568057;91;20169;-61
2021/11/16 10:26:16;;;;;;;;;;;;;;;3.18;54.42;102351.56;1568067;91;20241;-61
2021/11/16 10:28:47;;;;;;;;;;;;;;;3.17;56.92;102349.82;1568467;91;20275;-63
2021/11/16 10:31:18;;;;;;;;;;;;;;;3.20;54.72;102346.91;1568473;91;20237;-62
2021/11/16 10:33:50;;;;;;;;;;;;;;;3.23;55.21;102343.99;1621778;87;20557;-61
2021/11/16 10:36:20;;;;;;;;;;;;;;;3.25;58.02;102338.47;1652070;87;20210;-63
2021/11/16 10:38:53;;;;;;;;;;;;;;;3.55;63.88;102340.48;1620850;88;20569;-61
2021/11/16 10:41:26;;;;;;;;;;;;;;;3.78;58.43;102330.28;1645814;87;20205;-61
2021/11/16 10:44:00;;;;;;;;;;;;;;;3.77;55.96;102323.12;1645881;87;20158;-62
2021/11/16 10:46:32;;;;;;;;;;;;;;;3.72;55.52;102321.22;1621219;88;20236;-62
2021/11/16 10:49:09;;;;;;;;;;;;;;;3.68;56.28;102311.56;1645818;87;20269;-63
2021/11/16 10:51:39;;;;;;;;;;;;;;;3.66;55.01;102316.22;1645486;87;20162;-63
2021/11/16 10:54:11;;;;;;;;;;;;;;;3.65;55.29;102314.97;1645795;87;20461;-63
2021/11/16 10:56:39;;;;;;;;;;;;;;;3.62;54.67;102304.34;1638223;87;20476;-64
2021/11/16 10:59:18;;;;;;;;;;;;;;;3.57;54.45;102297.88;1632417;88;20171;-62
2021/11/16 11:01:52;;;;;;;;;;;;;;;3.47;54.22;102290.87;1632682;88;20232;-66
2021/11/16 11:04:23;;;;;;;;;;;;;;;3.43;54.69;102289.35;1621940;88;20212;-65
2021/11/16 11:06:53;;;;;;;;;;;;;;;3.46;54.77;102286.92;1619292;88;20220;-65
2021/11/16 11:09:23;;;;;;;;;;;;;;;3.48;54.49;102280.42;1618345;89;20173;-63
2021/11/16 11:11:55;;;;;;;;;;;;;;;3.47;54.86;102284.10;1617942;89;20169;-70
2021/11/16 11:14:37;;;;;;;;;;;;;;;3.52;55.51;102282.43;1618111;89;20228;-66
2021/11/16 11:17:09;;;;;;;;;;;;;;;3.58;54.56;102281.13;1617873;89;20467;-66
2021/11/16 11:19:39;;;;;;;;;;;;;;;3.57;54.29;102281.63;1617970;89;20557;-66
2021/11/16 11:22:23;;;;;;;;;;;;;;;3.58;54.34;102279.78;1618114;89;20233;-65
2021/11/16 11:25:02;;;;;;;;;;;;;;;3.60;54.17;102275.13;1618121;89;20225;-66
2021/11/16 11:27:35;;;;;;;;;;;;;;;3.61;54.11;102272.79;1618139;87;20216;-66
2021/11/16 11:30:03;;;;;;;;;;;;;;;3.61;53.77;102267.37;1619233;88;20167;-65
2021/11/16 11:32:35;;;;;;;;;;;;;;;3.58;53.73;102264.38;1564222;92;20167;-66
2021/11/16 11:35:12;;;;;;;;;;;;;;;3.58;54.10;102255.39;1563959;92;20221;-64
2021/11/16 11:37:47;;;;;;;;;;;;;;;3.60;54.34;102255.66;1564090;92;20302;-61
2021/11/16 11:40:20;;;;;;;;;;;;;;;3.62;55.22;102256.91;1563900;92;20240;-67
2021/11/16 11:42:57;;;;;;;;;;;;;;;3.77;57.57;102263.47;1564196;92;20290;-63
2021/11/16 11:45:32;;;;;;;;;;;;;;;3.85;55.09;102260.22;1563576;92;20223;-66
2021/11/16 11:48:07;;;;;;;;;;;;;;;3.85;54.91;102252.57;1568230;91;20536;-64
2021/11/16 11:50:46;;;;;;;;;;;;;;;3.85;54.67;102256.16;1472884;97;20251;-65
2021/11/16 11:53:19;;;;;;;;;;;;;;;3.85;54.00;102254.80;1454946;97;20567;-65
2021/11/16 11:55:51;;;;;;;;;;;;;;;3.84;54.72;102251.70;1434247;96;20346;-68
2021/11/16 11:58:20;;;;;;;;;;;;;;;3.83;54.16;102244.55;1496011;95;20540;-64
2021/11/16 12:00:50;;;;;;;;;;;;;;;3.80;53.83;102246.13;1497527;95;20219;-64
2021/11/16 12:03:20;;;;;;;;;;;;;;;3.73;53.17;102242.11;1505967;94;20318;-64
2021/11/16 12:05:49;;;;;;;;;;;;;;;3.67;53.71;102231.70;1520100;94;20208;-64
2021/11/16 12:08:19;;;;;;;;;;;;;;;3.67;54.02;102235.77;1545782;91;20282;-64
2021/11/16 12:10:57;;;;;;;;;;;;;;;3.68;54.58;102232.08;1544692;93;20265;-66
2021/11/16 12:13:29;;;;;;;;;;;;;;;3.70;54.07;102234.19;1544801;92;20483;-64
2021/11/16 12:16:28;;;;;;;;;;;;;;;3.71;53.83;102230.02;1625927;87;20155;-63
2021/11/16 12:19:08;;;;;;;;;;;;;;;3.70;54.30;102230.13;1645877;87;20464;-65
2021/11/16 12:21:42;;;;;;;;;;;;;;;3.69;54.76;102228.39;1646056;87;20191;-64
2021/11/16 12:24:13;;;;;;;;;;;;;;;3.70;54.74;102228.28;1646245;87;20246;-67
2021/11/16 12:26:59;;;;;;;;;;;;;;;3.71;54.17;102215.11;1646450;87;20523;-66
2021/11/16 12:29:29;;;;;;;;;;;;;;;3.73;54.40;102215.00;1646226;87;20298;-66
2021/11/16 12:32:17;;;;;;;;;;;;;;;3.74;54.00;102212.18;1647515;87;20215;-66
2021/11/16 12:34:50;;;;;;;;;;;;;;;3.72;53.63;102209.20;1647484;87;20210;-66
2021/11/16 12:37:38;;;;;;;;;;;;;;;3.70;53.70;102205.73;1647552;87;20217;-66
2021/11/16 12:40:10;;;;;;;;;;;;;;;3.66;53.64;102200.14;1647491;87;20158;-66
2021/11/16 12:42:40;;;;;;;;;;;;;;;3.63;53.61;102197.66;1647491;87;20473;-65
2021/11/16 12:45:10;;;;;;;;;;;;;;;3.61;54.15;102199.12;1647481;87;20163;-65
2021/11/16 12:47:59;;;;;;;;;;;;;;;3.63;54.18;102194.45;1647524;87;20497;-66
2021/11/16 12:50:27;;;;;;;;;;;;;;;3.67;54.04;102192.39;1647817;87;20496;-63
2021/11/16 12:52:57;;;;;;;;;;;;;;;3.63;53.85;102180.91;1647460;87;20546;-64
2021/11/16 12:55:29;;;;;;;;;;;;;;;3.60;53.51;102181.61;1647398;87;20206;-66
2021/11/16 12:58:01;;;;;;;;;;;;;;;3.59;53.95;102173.09;1647405;87;20214;-65
2021/11/16 13:00:35;;;;;;;;;;;;;;;3.59;54.34;102175.32;1643939;86;20206;-66
2021/11/16 13:03:05;;;;;;;;;;;;;;;3.60;53.98;102170.77;1647692;87;20560;-66
2021/11/16 13:05:42;;;;;;;;;;;;;;;3.58;53.87;102180.85;1647674;87;20294;-63
2021/11/16 13:08:12;;;;;;;;;;;;;;;3.56;53.94;102168.77;1644989;87;20166;-67
2021/11/16 13:10:49;;;;;;;;;;;;;;;3.53;53.96;102175.75;1643091;86;20217;-65
2021/11/16 13:13:26;;;;;;;;;;;;;;;3.53;53.81;102170.83;1605472;87;20204;-65
2021/11/16 13:15:56;;;;;;;;;;;;;;;3.51;55.00;102172.29;1585008;91;20222;-65
2021/11/16 13:18:31;;;;;;;;;;;;;;;3.50;54.10;102164.64;1608712;89;20216;-64
2021/11/16 13:21:13;;;;;;;;;;;;;;;3.51;54.13;102169.58;1609169;89;20208;-72
2021/11/16 13:23:51;;;;;;;;;;;;;;;3.49;54.05;102166.97;1609575;89;20509;-63
2021/11/16 13:26:24;;;;;;;;;;;;;;;3.47;54.16;102160.80;1609523;89;20483;-64
2021/11/16 13:31:44;;;;;;;;;;;;;;;3.47;54.52;102154.02;1608841;89;20212;-64